createdAt,value
2023-05-05T00:01:17.142Z,2.33
2023-05-05T00:06:19.541Z,2.57
2023-05-05T00:11:21.918Z,2.10
2023-05-05T00:16:24.233Z,2.40
2023-05-05T00:21:27.741Z,1.97
2023-05-05T00:26:30.083Z,2.30
2023-05-05T00:31:32.560Z,2.40
2023-05-05T00:36:34.993Z,2.83
2023-05-05T00:41:37.368Z,2.33
2023-05-05T00:46:40.718Z,2.70
2023-05-05T00:51:43.137Z,2.33
2023-05-05T00:56:46.012Z,3.00
2023-05-05T01:01:48.188Z,2.83
2023-05-05T01:07:25.936Z,2.70
2023-05-05T01:12:41.552Z,2.50
2023-05-05T01:17:56.187Z,3.10
2023-05-05T01:23:06.053Z,2.37
2023-05-05T01:28:48.320Z,2.50
2023-05-05T01:33:59.071Z,3.27
2023-05-05T01:39:03.509Z,3.13
2023-05-05T01:44:08.437Z,3.07
2023-05-05T01:49:12.677Z,3.00
2023-05-05T01:54:16.767Z,3.00
2023-05-05T01:59:21.063Z,2.73
2023-05-05T02:04:24.571Z,2.60
2023-05-05T02:09:29.514Z,3.10
2023-05-05T02:14:34.367Z,2.60
2023-05-05T02:19:42.340Z,2.80
2023-05-05T02:24:45.356Z,3.30
2023-05-05T02:29:52.028Z,2.93
2023-05-05T02:34:56.000Z,2.90
2023-05-05T02:40:06.310Z,3.40
2023-05-05T02:45:22.848Z,3.17
2023-05-05T02:50:26.867Z,3.30
2023-05-05T02:55:55.248Z,3.50
2023-05-05T03:01:12.017Z,3.90
2023-05-05T03:06:18.396Z,3.13
2023-05-05T03:11:33.010Z,3.23
2023-05-05T03:16:39.030Z,3.57
2023-05-05T03:21:42.836Z,3.27
2023-05-05T03:26:47.500Z,3.00
2023-05-05T03:31:50.902Z,3.20
2023-05-05T03:36:53.534Z,3.10
2023-05-05T03:41:55.980Z,3.97
2023-05-05T03:46:59.961Z,3.83
2023-05-05T03:52:04.794Z,3.57
2023-05-05T03:57:07.636Z,4.00
2023-05-05T04:02:09.856Z,4.70
2023-05-05T04:07:12.183Z,3.30
2023-05-05T04:12:14.575Z,3.27
2023-05-05T04:17:17.058Z,4.63
2023-05-05T04:22:19.717Z,3.60
2023-05-05T04:27:22.077Z,4.17
2023-05-05T04:32:24.803Z,4.30
2023-05-05T04:37:27.528Z,4.07
2023-05-05T04:42:30.545Z,4.73
2023-05-05T04:47:38.220Z,5.23
2023-05-05T04:52:41.143Z,5.17
2023-05-05T04:57:43.682Z,4.60
2023-05-05T05:02:46.107Z,5.27
2023-05-05T05:07:48.265Z,5.80
2023-05-05T05:12:50.682Z,4.83
2023-05-05T05:17:53.066Z,5.07
2023-05-05T05:22:55.727Z,5.20
2023-05-05T05:28:08.753Z,5.13
2023-05-05T05:33:16.020Z,4.80
2023-05-05T05:38:19.810Z,4.57
2023-05-05T05:43:23.550Z,4.97
2023-05-05T05:48:28.604Z,4.80
2023-05-05T05:53:32.108Z,5.13
2023-05-05T05:58:34.472Z,5.90
2023-05-05T06:03:37.000Z,6.27
2023-05-05T06:08:39.444Z,6.10
2023-05-05T06:13:42.210Z,5.70
2023-05-05T06:18:44.810Z,5.47
2023-05-05T06:23:47.956Z,4.90
2023-05-05T06:28:50.700Z,4.17
2023-05-05T06:33:52.941Z,4.40
2023-05-05T06:38:55.253Z,4.50
2023-05-05T06:43:57.503Z,4.03
2023-05-05T06:48:59.882Z,4.13
2023-05-05T06:54:02.177Z,4.40
2023-05-05T06:59:04.451Z,3.90
2023-05-05T07:04:07.179Z,4.23
2023-05-05T07:09:09.689Z,4.10
2023-05-05T07:14:11.917Z,4.70
2023-05-05T07:19:14.027Z,7.23
2023-05-05T07:24:16.377Z,10.80
2023-05-05T07:29:18.541Z,10.40
2023-05-05T07:34:20.741Z,7.17
2023-05-05T07:39:23.058Z,5.60
2023-05-05T07:44:25.726Z,5.30
2023-05-05T07:49:28.090Z,4.30
2023-05-05T07:54:30.460Z,4.00
2023-05-05T07:59:32.752Z,3.87
2023-05-05T08:04:35.062Z,4.27
2023-05-05T08:09:38.564Z,4.27
2023-05-05T08:14:42.574Z,3.47
2023-05-05T08:19:44.863Z,3.27
2023-05-05T08:24:47.085Z,3.20
2023-05-05T08:29:49.364Z,3.03
2023-05-05T08:34:51.583Z,2.43
2023-05-05T08:39:53.888Z,2.63
2023-05-05T08:44:58.344Z,3.00
2023-05-05T08:50:01.977Z,3.00
2023-05-05T08:55:26.908Z,3.00
2023-05-05T09:00:29.268Z,3.33
2023-05-05T09:05:31.656Z,3.50
2023-05-05T09:10:34.523Z,3.13
2023-05-05T09:15:39.048Z,3.20
2023-05-05T09:20:42.168Z,3.17
2023-05-05T09:25:47.504Z,3.10
2023-05-05T09:30:49.682Z,3.10
2023-05-05T09:35:54.721Z,2.73
2023-05-05T09:40:56.982Z,2.57
2023-05-05T09:46:08.906Z,2.70
2023-05-05T09:51:11.451Z,3.30
2023-05-05T09:56:13.844Z,3.10
2023-05-05T10:01:24.140Z,3.63
2023-05-05T10:06:48.415Z,3.07
2023-05-05T10:11:51.561Z,2.57
2023-05-05T10:16:55.998Z,3.90
2023-05-05T10:22:04.500Z,2.43
2023-05-05T10:27:22.684Z,2.50
2023-05-05T10:32:54.403Z,2.07
2023-05-05T10:38:00.830Z,2.10
2023-05-05T10:43:03.309Z,2.10
2023-05-05T10:48:12.036Z,2.00
2023-05-05T10:53:24.270Z,1.70
2023-05-05T10:58:55.524Z,2.23
2023-05-05T11:04:23.614Z,2.50
2023-05-05T11:09:29.810Z,1.77
2023-05-05T11:14:32.117Z,1.53
2023-05-05T11:19:43.788Z,2.23
2023-05-05T11:24:47.354Z,2.10
2023-05-05T11:30:16.916Z,1.80
2023-05-05T11:35:19.488Z,1.93
2023-05-05T11:40:28.704Z,1.73
2023-05-05T11:45:31.220Z,2.13
2023-05-05T11:50:33.932Z,1.97
2023-05-05T11:55:36.422Z,1.93
2023-05-05T12:00:38.768Z,1.70
2023-05-05T12:05:41.896Z,1.93
2023-05-05T12:10:44.320Z,1.63
2023-05-05T12:15:47.179Z,2.07
2023-05-05T12:20:49.707Z,1.73
2023-05-05T12:25:52.025Z,2.00
2023-05-05T12:31:00.494Z,1.90
2023-05-05T12:36:02.976Z,1.87
2023-05-05T12:41:05.522Z,2.00
2023-05-05T12:46:14.901Z,2.40
2023-05-05T12:51:20.713Z,1.67
2023-05-05T12:56:35.939Z,2.07
2023-05-05T13:01:53.600Z,2.33
2023-05-05T13:07:14.742Z,1.80
2023-05-05T13:12:21.403Z,2.20
2023-05-05T13:17:25.131Z,2.30
2023-05-05T13:22:27.389Z,1.73
2023-05-05T13:27:29.736Z,1.90
2023-05-05T13:32:32.035Z,2.00
2023-05-05T13:37:34.219Z,1.73
2023-05-05T13:42:36.509Z,2.03
2023-05-05T13:47:39.115Z,1.90
2023-05-05T13:52:41.936Z,1.97
2023-05-05T13:57:44.227Z,2.20
2023-05-05T14:02:47.940Z,1.80
2023-05-05T14:07:50.306Z,2.20
2023-05-05T14:12:52.723Z,2.37
2023-05-05T14:17:56.283Z,2.53
2023-05-05T14:22:58.572Z,1.80
2023-05-05T14:28:00.717Z,2.00
2023-05-05T14:33:03.065Z,3.17
2023-05-05T14:38:05.701Z,1.70
2023-05-05T14:43:08.044Z,3.30
2023-05-05T14:48:11.002Z,2.67
2023-05-05T14:53:13.252Z,4.50
2023-05-05T14:58:15.682Z,2.80
2023-05-05T15:03:18.117Z,2.03
2023-05-05T15:08:20.486Z,2.73
2023-05-05T15:13:22.635Z,3.07
2023-05-05T15:18:25.030Z,2.20
2023-05-05T15:23:27.258Z,2.33
2023-05-05T15:28:29.362Z,1.80
2023-05-05T15:33:31.565Z,2.07
2023-05-05T15:38:33.790Z,2.27
2023-05-05T15:43:36.205Z,3.23
2023-05-05T15:48:38.504Z,3.70
2023-05-05T15:53:40.762Z,2.90
2023-05-05T15:58:43.053Z,2.70
2023-05-05T16:03:45.327Z,3.27
2023-05-05T16:08:48.926Z,2.90
2023-05-05T16:13:51.204Z,2.70
2023-05-05T16:18:53.440Z,2.80
2023-05-05T16:23:56.960Z,2.10
2023-05-05T16:28:59.388Z,1.63
2023-05-05T16:34:01.760Z,2.40
2023-05-05T16:39:04.239Z,1.87
2023-05-05T16:44:07.087Z,1.97
2023-05-05T16:49:09.352Z,2.20
2023-05-05T16:54:11.457Z,1.90
2023-05-05T16:59:15.696Z,2.07
2023-05-05T17:04:17.941Z,1.70
2023-05-05T17:09:24.870Z,2.17
2023-05-05T17:14:27.473Z,2.07
2023-05-05T17:19:29.664Z,2.03
2023-05-05T17:24:31.781Z,2.20
2023-05-05T17:29:36.939Z,1.70
2023-05-05T17:34:39.288Z,3.03
2023-05-05T17:39:41.570Z,1.80
2023-05-05T17:44:44.996Z,2.17
2023-05-05T17:49:52.620Z,2.00
2023-05-05T17:54:54.815Z,2.10
2023-05-05T17:59:57.051Z,1.73
2023-05-05T18:04:59.312Z,2.20
2023-05-05T18:10:01.602Z,3.73
2023-05-05T18:15:05.574Z,11.77
2023-05-05T18:20:08.583Z,2.77
2023-05-05T18:25:11.048Z,2.03
2023-05-05T18:30:13.755Z,1.90
2023-05-05T18:35:16.057Z,5.60
2023-05-05T18:40:18.611Z,2.53
2023-05-05T18:45:20.911Z,2.80
2023-05-05T18:50:23.241Z,4.60
2023-05-05T18:55:25.624Z,3.07
2023-05-05T19:00:27.874Z,3.00
2023-05-05T19:05:30.203Z,3.70
2023-05-05T19:10:32.452Z,4.80
2023-05-05T19:15:34.758Z,3.30
2023-05-05T19:20:38.640Z,3.20
2023-05-05T19:25:41.074Z,3.60
2023-05-05T19:30:43.452Z,3.37
2023-05-05T19:35:45.917Z,3.20
2023-05-05T19:40:48.075Z,3.50
2023-05-05T19:45:50.359Z,3.70
2023-05-05T19:50:53.214Z,3.83
2023-05-05T19:55:55.690Z,4.50
2023-05-05T20:00:58.003Z,4.97
2023-05-05T20:06:00.161Z,4.80
2023-05-05T20:11:02.387Z,4.50
2023-05-05T20:16:06.146Z,3.13
2023-05-05T20:21:08.609Z,3.20
2023-05-05T20:26:11.505Z,3.80
2023-05-05T20:31:15.562Z,3.23
2023-05-05T20:36:18.650Z,3.70
2023-05-05T20:41:20.887Z,3.87
2023-05-05T20:46:23.156Z,3.50
2023-05-05T20:51:29.349Z,3.50
2023-05-05T20:56:31.604Z,3.60
2023-05-05T21:01:34.574Z,3.20
2023-05-05T21:06:36.863Z,3.20
2023-05-05T21:11:39.065Z,3.07
2023-05-05T21:16:41.360Z,3.17
2023-05-05T21:21:43.758Z,3.33
2023-05-05T21:26:46.193Z,3.30
2023-05-05T21:31:48.456Z,3.67
2023-05-05T21:36:51.479Z,3.47
2023-05-05T21:41:53.615Z,4.17
2023-05-05T21:46:56.272Z,4.10
2023-05-05T21:51:58.576Z,3.50
2023-05-05T21:57:01.648Z,3.30
2023-05-05T22:02:03.947Z,3.53
2023-05-05T22:07:06.498Z,3.53
2023-05-05T22:12:08.766Z,3.17
2023-05-05T22:17:11.629Z,3.60
2023-05-05T22:22:13.948Z,3.43
2023-05-05T22:27:16.161Z,3.80
2023-05-05T22:32:18.335Z,3.80
2023-05-05T22:37:20.868Z,4.60
2023-05-05T22:42:23.120Z,4.27
2023-05-05T22:47:25.647Z,4.70
2023-05-05T22:52:29.098Z,5.40
2023-05-05T22:57:31.497Z,5.40
2023-05-05T23:02:33.752Z,5.50
2023-05-05T23:07:36.022Z,5.20
2023-05-05T23:12:38.456Z,5.10
2023-05-05T23:17:40.684Z,5.70
2023-05-05T23:22:42.867Z,4.50
2023-05-05T23:27:45.216Z,4.90
2023-05-05T23:32:47.612Z,5.10
2023-05-05T23:37:50.267Z,4.77
2023-05-05T23:42:52.391Z,5.03
2023-05-05T23:47:55.116Z,4.73
2023-05-05T23:52:57.471Z,4.83
2023-05-05T23:57:59.773Z,4.77
